Time;durP1;ratioP1;P1;durP2;ratioP2;P2;SDS_P1;SDS_P2;PMS_P1;PMS_P2;Temp;Humidity;BMP_temperature;BMP_pressure;BME280_temperature;BME280_humidity;BME280_pressure;Samples;Min_cycle;Max_cycle;Signal;HPM_P1;HPM_P2
2021/06/27 00:01:48;;;;;;;5.88;3.03;;;21.10;62.90;;;;;;5085058;28;20446;-69
2021/06/27 00:04:34;;;;;;;3.30;2.83;;;21.00;62.70;;;;;;5080474;28;20156;-69
2021/06/27 00:07:20;;;;;;;3.72;2.92;;;21.00;62.60;;;;;;5069411;28;20534;-69
2021/06/27 00:10:12;;;;;;;5.32;3.25;;;21.00;62.70;;;;;;5067849;28;20496;-69
2021/06/27 00:13:00;;;;;;;4.20;3.00;;;20.90;62.70;;;;;;5067938;28;20059;-69
2021/06/27 00:15:48;;;;;;;3.97;2.95;;;20.90;62.70;;;;;;5068750;28;20120;-69
2021/06/27 00:18:35;;;;;;;5.00;3.13;;;20.80;62.80;;;;;;5069196;28;20064;-70
2021/06/27 00:21:21;;;;;;;5.18;3.28;;;20.80;62.80;;;;;;5068563;28;20036;-69
2021/06/27 00:24:07;;;;;;;4.03;3.13;;;20.80;62.80;;;;;;5070815;28;20111;-69
2021/06/27 00:26:53;;;;;;;4.18;3.08;;;20.80;62.90;;;;;;5068246;28;20032;-69
2021/06/27 00:29:38;;;;;;;4.03;2.97;;;20.70;63.00;;;;;;5079433;28;20052;-69
2021/06/27 00:32:24;;;;;;;4.53;3.20;;;20.70;63.00;;;;;;5068752;28;20031;-69
2021/06/27 00:35:12;;;;;;;4.22;3.17;;;20.60;63.00;;;;;;5067275;28;20028;-69
2021/06/27 00:37:58;;;;;;;5.78;3.25;;;20.60;63.70;;;;;;5091078;28;20400;-69
2021/06/27 00:40:44;;;;;;;4.43;3.10;;;20.60;63.30;;;;;;5081129;28;20021;-69
2021/06/27 00:43:31;;;;;;;4.43;3.20;;;20.60;63.80;;;;;;5068698;28;20033;-69
2021/06/27 00:46:17;;;;;;;4.40;3.08;;;20.70;63.50;;;;;;5076589;28;20043;-69
2021/06/27 00:49:03;;;;;;;4.45;2.95;;;20.70;63.60;;;;;;5075423;28;20075;-69
2021/06/27 00:51:48;;;;;;;5.70;3.40;;;20.70;63.80;;;;;;5073027;28;20405;-69
2021/06/27 00:54:34;;;;;;;5.57;3.38;;;20.70;63.80;;;;;;5069268;28;20063;-69
2021/06/27 00:57:20;;;;;;;4.03;2.88;;;20.70;64.00;;;;;;5085899;28;20404;-69
2021/06/27 01:00:09;;;;;;;4.43;3.35;;;20.60;64.00;;;;;;5075340;28;20025;-69
2021/06/27 01:02:56;;;;;;;5.13;3.28;;;20.60;64.10;;;;;;5056171;28;20032;-69
2021/06/27 01:05:41;;;;;;;3.92;2.83;;;20.60;64.20;;;;;;5068841;28;20045;-69
2021/06/27 01:08:27;;;;;;;6.43;3.33;;;20.60;64.40;;;;;;5068498;28;20060;-69
2021/06/27 01:11:13;;;;;;;3.85;2.97;;;20.50;64.60;;;;;;5077283;28;20552;-69
2021/06/27 01:13:59;;;;;;;3.55;2.70;;;20.50;65.20;;;;;;5090770;28;20028;-72
2021/06/27 01:16:45;;;;;;;4.25;2.97;;;20.50;64.80;;;;;;5072216;28;20052;-72
2021/06/27 01:19:32;;;;;;;3.70;2.65;;;20.50;64.90;;;;;;5068388;28;20044;-71
2021/06/27 01:22:18;;;;;;;5.20;3.30;;;20.50;65.00;;;;;;5085500;28;20028;-72
2021/06/27 01:25:06;;;;;;;5.25;2.83;;;20.50;65.00;;;;;;5087033;28;20032;-72
2021/06/27 01:27:53;;;;;;;3.85;2.67;;;20.50;65.20;;;;;;5074313;28;20035;-71
2021/06/27 01:30:41;;;;;;;4.05;2.67;;;20.50;65.40;;;;;;5071349;28;20036;-72
2021/06/27 01:33:27;;;;;;;4.05;2.60;;;20.50;65.40;;;;;;5071974;28;20047;-72
2021/06/27 01:36:13;;;;;;;3.90;3.00;;;20.50;65.50;;;;;;5071097;28;20040;-72
2021/06/27 01:38:59;;;;;;;3.60;2.90;;;20.50;65.50;;;;;;5076641;28;20028;-72
2021/06/27 01:41:52;;;;;;;5.05;2.97;;;20.40;65.60;;;;;;5093139;28;20012;-72
2021/06/27 01:44:25;;;;;;;5.68;3.20;;;20.40;65.80;;;;;;5049136;28;20036;-70
2021/06/27 01:47:09;;;;;;;3.38;2.90;;;20.40;65.80;;;;;;5073997;28;20380;-70
2021/06/27 01:49:54;;;;;;;4.30;2.92;;;20.40;65.90;;;;;;5086670;28;20468;-70
2021/06/27 01:52:38;;;;;;;7.30;3.00;;;20.40;65.90;;;;;;5094001;28;20584;-70
2021/06/27 01:55:23;;;;;;;4.50;2.83;;;20.30;65.90;;;;;;5073023;28;20039;-70
2021/06/27 01:58:08;;;;;;;3.50;2.72;;;20.30;66.00;;;;;;5071716;28;20050;-70
2021/06/27 02:00:52;;;;;;;4.68;3.03;;;20.30;66.20;;;;;;5053595;28;20083;-70
2021/06/27 02:03:36;;;;;;;5.43;3.10;;;20.20;66.30;;;;;;5073421;28;20066;-70
2021/06/27 02:06:23;;;;;;;4.68;3.08;;;20.20;66.20;;;;;;5053425;28;20087;-69
2021/06/27 02:09:13;;;;;;;5.28;3.03;;;20.20;66.30;;;;;;5062383;28;20039;-69
2021/06/27 02:11:57;;;;;;;3.90;3.08;;;20.20;66.30;;;;;;5073550;28;20071;-69
2021/06/27 02:14:41;;;;;;;4.73;3.00;;;20.20;66.50;;;;;;5079196;28;20089;-70
2021/06/27 02:17:25;;;;;;;4.37;3.27;;;20.10;66.50;;;;;;5079857;28;20066;-69
2021/06/27 02:20:10;;;;;;;3.72;2.53;;;20.10;66.70;;;;;;5072151;28;20032;-69
2021/06/27 02:22:54;;;;;;;5.80;3.28;;;20.10;66.70;;;;;;5073463;28;20097;-69
2021/06/27 02:25:38;;;;;;;4.80;2.78;;;20.10;67.10;;;;;;5073152;28;20071;-70
2021/06/27 02:28:23;;;;;;;4.85;2.92;;;20.00;67.10;;;;;;5072002;28;20090;-69
2021/06/27 02:31:08;;;;;;;3.53;2.63;;;20.00;67.30;;;;;;5072232;28;20043;-69
2021/06/27 02:33:52;;;;;;;4.53;3.08;;;20.00;67.60;;;;;;5072113;28;20149;-70
2021/06/27 02:36:36;;;;;;;4.50;3.17;;;20.00;67.80;;;;;;5057985;28;20038;-69
2021/06/27 02:39:21;;;;;;;4.55;3.30;;;20.00;68.20;;;;;;5071607;28;20048;-69
2021/06/27 02:42:06;;;;;;;3.83;2.83;;;19.90;68.30;;;;;;5072941;28;20495;-70
2021/06/27 02:44:50;;;;;;;4.97;3.10;;;19.90;68.50;;;;;;5085229;28;20042;-69
2021/06/27 02:47:36;;;;;;;4.50;3.17;;;19.80;68.40;;;;;;5093271;28;20196;-69
2021/06/27 02:50:20;;;;;;;5.13;3.45;;;19.80;68.60;;;;;;5090122;28;20069;-69
2021/06/27 02:53:07;;;;;;;4.30;3.15;;;19.80;68.80;;;;;;5090385;28;20090;-69
2021/06/27 02:56:07;;;;;;;5.07;3.60;;;19.80;68.70;;;;;;5052387;28;20028;-69
2021/06/27 02:58:51;;;;;;;5.68;3.75;;;19.80;68.90;;;;;;5057897;28;20063;-69
2021/06/27 03:01:35;;;;;;;4.60;3.58;;;19.80;68.80;;;;;;5072513;28;20553;-70
2021/06/27 03:04:19;;;;;;;4.67;3.30;;;19.80;69.10;;;;;;5071316;28;20059;-70
2021/06/27 03:07:03;;;;;;;6.75;3.80;;;19.80;69.20;;;;;;5072800;28;20098;-70
2021/06/27 03:09:47;;;;;;;4.75;2.88;;;19.80;69.20;;;;;;5069723;28;20113;-70
2021/06/27 03:12:31;;;;;;;4.97;3.30;;;19.80;69.60;;;;;;5090866;28;20035;-71
2021/06/27 03:15:18;;;;;;;5.37;4.00;;;19.80;69.70;;;;;;5074469;28;20089;-70
2021/06/27 03:18:03;;;;;;;5.25;3.70;;;19.80;69.90;;;;;;5072469;28;20348;-70
2021/06/27 03:20:47;;;;;;;5.55;3.72;;;19.80;70.20;;;;;;5052027;28;20078;-70
2021/06/27 03:23:31;;;;;;;4.60;3.27;;;19.80;70.20;;;;;;5057862;28;20043;-70
2021/06/27 03:26:15;;;;;;;7.20;3.27;;;19.80;70.60;;;;;;5092210;28;20280;-70
2021/06/27 03:28:59;;;;;;;4.60;3.50;;;19.80;70.70;;;;;;5085407;28;20339;-70
2021/06/27 03:31:43;;;;;;;4.23;3.17;;;19.80;71.00;;;;;;5073700;28;20046;-70
2021/06/27 03:34:27;;;;;;;4.55;3.40;;;19.80;71.10;;;;;;5081432;28;20451;-70
2021/06/27 03:37:11;;;;;;;7.00;3.85;;;19.80;71.00;;;;;;5091836;28;20043;-70
2021/06/27 03:39:55;;;;;;;3.80;2.90;;;19.80;70.70;;;;;;5088465;28;20043;-70
2021/06/27 03:42:39;;;;;;;4.57;3.58;;;19.80;71.30;;;;;;5091986;28;20300;-70
2021/06/27 03:45:15;;;;;;;5.18;3.55;;;19.90;71.10;;;;;;5049883;28;20078;-69
2021/06/27 03:47:59;;;;;;;5.22;4.25;;;19.90;71.20;;;;;;5051571;28;20045;-69
2021/06/27 03:50:43;;;;;;;4.07;3.03;;;19.90;70.90;;;;;;5062970;28;20051;-69
2021/06/27 03:53:27;;;;;;;5.43;3.85;;;19.90;71.50;;;;;;5088554;28;20039;-69
2021/06/27 03:56:11;;;;;;;4.80;3.38;;;20.00;71.00;;;;;;5078909;28;20620;-69
2021/06/27 03:58:55;;;;;;;5.78;3.72;;;20.00;70.70;;;;;;5074950;28;20442;-69
2021/06/27 04:01:39;;;;;;;5.20;3.73;;;20.00;70.40;;;;;;5091645;28;20506;-69
2021/06/27 04:04:23;;;;;;;5.80;3.87;;;20.00;70.20;;;;;;5087510;28;20109;-69
2021/06/27 04:07:07;;;;;;;4.30;3.20;;;20.00;70.30;;;;;;5091236;28;20269;-69
2021/06/27 04:09:52;;;;;;;5.35;4.00;;;20.00;70.70;;;;;;5072828;28;20565;-69
2021/06/27 04:12:36;;;;;;;4.30;3.20;;;20.10;70.90;;;;;;5090087;28;20077;-69
2021/06/27 04:15:20;;;;;;;5.85;3.65;;;20.10;70.50;;;;;;5069647;28;20559;-69
2021/06/27 04:18:09;;;;;;;3.90;2.93;;;20.10;70.70;;;;;;5069509;28;20114;-69
2021/06/27 04:20:54;;;;;;;3.88;2.92;;;20.10;70.40;;;;;;5051050;28;20035;-69
2021/06/27 04:23:39;;;;;;;3.30;2.70;;;20.20;70.60;;;;;;5043823;28;20051;-74
2021/06/27 04:26:23;;;;;;;;;;;20.20;70.90;;;;;;5071161;28;20059;-71
2021/06/27 04:29:12;;;;;;;5.60;3.70;;;20.20;70.30;;;;;;5077560;28;19953;-72
2021/06/27 04:31:57;;;;;;;5.07;3.20;;;20.20;70.30;;;;;;5091417;28;20407;-70
2021/06/27 04:34:41;;;;;;;4.20;3.03;;;20.20;70.10;;;;;;5075860;28;20089;-72
2021/06/27 04:37:25;;;;;;;4.22;3.20;;;20.20;70.50;;;;;;5071079;28;20082;-73
2021/06/27 04:40:10;;;;;;;4.47;3.33;;;20.30;69.70;;;;;;5086628;28;20503;-73
2021/06/27 04:42:54;;;;;;;5.22;3.47;;;20.30;69.50;;;;;;5091263;28;20043;-73
2021/06/27 04:45:40;;;;;;;5.22;3.78;;;20.30;69.30;;;;;;5091496;28;20055;-72
2021/06/27 04:48:24;;;;;;;6.53;3.45;;;20.30;69.20;;;;;;5087663;28;20039;-73
2021/06/27 04:51:08;;;;;;;5.17;3.07;;;20.30;69.50;;;;;;5091109;28;20031;-73
2021/06/27 04:53:52;;;;;;;4.82;3.08;;;20.30;69.70;;;;;;5078371;28;20693;-73
2021/06/27 04:56:36;;;;;;;4.57;3.20;;;20.30;69.40;;;;;;5069968;28;20094;-73
2021/06/27 04:59:21;;;;;;;7.10;3.45;;;20.30;69.20;;;;;;5070182;28;20040;-72
2021/06/27 05:02:05;;;;;;;5.07;3.13;;;20.40;69.40;;;;;;5072577;28;20043;-72
2021/06/27 05:04:49;;;;;;;4.40;3.22;;;20.40;69.30;;;;;;5087454;28;20106;-72
2021/06/27 05:07:33;;;;;;;6.93;3.50;;;20.40;69.90;;;;;;5095459;28;20078;-72
2021/06/27 05:10:18;;;;;;;4.45;3.30;;;20.50;68.80;;;;;;5074239;28;20349;-74
2021/06/27 05:13:03;;;;;;;4.43;3.00;;;20.50;68.50;;;;;;5074014;28;20082;-75
2021/06/27 05:15:46;;;;;;;5.25;3.53;;;20.50;68.70;;;;;;5075051;28;20163;-75
2021/06/27 05:18:30;;;;;;;4.03;3.30;;;20.60;68.20;;;;;;5073441;28;20044;-74
2021/06/27 05:21:15;;;;;;;5.35;2.63;;;20.60;67.90;;;;;;5074551;28;20039;-73
2021/06/27 05:23:59;;;;;;;3.40;2.72;;;20.60;67.90;;;;;;5087920;28;20055;-72
2021/06/27 05:26:43;;;;;;;3.83;2.90;;;20.70;68.10;;;;;;5079112;28;20081;-74
2021/06/27 05:29:27;;;;;;;3.67;2.80;;;20.70;67.90;;;;;;5091244;28;20115;-72
2021/06/27 05:32:11;;;;;;;4.68;3.00;;;20.80;68.60;;;;;;5074855;28;20039;-71
2021/06/27 05:34:55;;;;;;;4.63;3.20;;;20.80;67.90;;;;;;5087091;28;20061;-71
2021/06/27 05:37:39;;;;;;;3.73;2.73;;;20.80;67.30;;;;;;5094238;28;20073;-72
2021/06/27 05:40:23;;;;;;;4.00;2.80;;;20.80;66.90;;;;;;5056441;28;20836;-72
2021/06/27 05:43:07;;;;;;;4.32;3.03;;;20.90;67.10;;;;;;5071565;28;20086;-68
2021/06/27 05:45:51;;;;;;;4.73;3.17;;;20.90;66.50;;;;;;5068879;28;20047;-72
2021/06/27 05:48:35;;;;;;;5.17;2.87;;;21.00;66.20;;;;;;5068552;28;20297;-72
2021/06/27 05:51:21;;;;;;;4.43;3.05;;;21.00;66.70;;;;;;5075068;28;20274;-74
2021/06/27 05:54:08;;;;;;;3.65;2.70;;;21.00;67.50;;;;;;5053315;28;20103;-75
2021/06/27 05:56:54;;;;;;;4.55;3.38;;;21.10;67.00;;;;;;5069103;28;20045;-75
2021/06/27 05:59:40;;;;;;;5.40;2.65;;;21.20;66.20;;;;;;5063789;28;20137;-75
2021/06/27 06:02:26;;;;;;;4.65;3.13;;;21.20;66.20;;;;;;5064080;28;20475;-75
2021/06/27 06:05:12;;;;;;;2.92;2.60;;;21.30;66.10;;;;;;5069943;28;20412;-75
2021/06/27 06:07:58;;;;;;;5.93;2.70;;;21.30;66.00;;;;;;5074469;28;20025;-75
2021/06/27 06:10:43;;;;;;;5.25;2.83;;;21.40;66.10;;;;;;5080394;28;20028;-74
2021/06/27 06:13:29;;;;;;;4.55;2.70;;;21.40;65.80;;;;;;5070516;28;20024;-74
2021/06/27 06:16:15;;;;;;;4.05;2.65;;;21.40;65.30;;;;;;5084454;28;20034;-74
2021/06/27 06:19:01;;;;;;;4.72;2.53;;;21.50;65.20;;;;;;5079395;28;20027;-74
2021/06/27 06:21:48;;;;;;;8.45;2.90;;;21.50;65.30;;;;;;5062932;28;20025;-74
2021/06/27 06:24:34;;;;;;;4.10;2.97;;;21.50;64.90;;;;;;5072845;28;20487;-75
2021/06/27 06:27:19;;;;;;;3.92;2.80;;;21.60;65.20;;;;;;5075187;28;20047;-75
2021/06/27 06:30:06;;;;;;;4.50;2.70;;;21.70;65.00;;;;;;5076111;28;20040;-74
2021/06/27 06:32:52;;;;;;;3.28;2.33;;;21.70;64.90;;;;;;5072322;28;20036;-74
2021/06/27 06:35:39;;;;;;;3.40;2.20;;;21.70;64.90;;;;;;5066750;28;20086;-74
2021/06/27 06:38:25;;;;;;;3.78;2.95;;;21.80;64.10;;;;;;5075019;28;20045;-73
2021/06/27 06:41:10;;;;;;;5.03;2.65;;;21.80;64.10;;;;;;5068112;28;20032;-75
2021/06/27 06:43:56;;;;;;;3.33;2.70;;;21.90;63.60;;;;;;5052559;28;20452;-74
2021/06/27 06:46:42;;;;;;;4.15;2.85;;;21.90;63.30;;;;;;5075413;28;20575;-74
2021/06/27 06:49:28;;;;;;;5.65;3.00;;;21.90;62.80;;;;;;5072117;28;20106;-74
2021/06/27 06:52:14;;;;;;;4.07;2.67;;;22.00;63.00;;;;;;5074776;28;20029;-74
2021/06/27 06:54:59;;;;;;;5.05;2.67;;;22.00;62.90;;;;;;5074112;28;20056;-74
2021/06/27 06:57:45;;;;;;;3.03;2.30;;;22.10;63.10;;;;;;5063278;28;20033;-75
2021/06/27 07:00:31;;;;;;;4.15;2.60;;;22.10;62.70;;;;;;5067593;28;20028;-76
2021/06/27 07:03:17;;;;;;;4.70;2.58;;;22.20;62.30;;;;;;5070205;28;20740;-74
2021/06/27 07:06:03;;;;;;;5.10;2.63;;;22.20;63.10;;;;;;5051355;28;20067;-76
2021/06/27 07:08:49;;;;;;;3.60;2.70;;;22.30;62.60;;;;;;5061669;28;20034;-76
2021/06/27 07:11:35;;;;;;;3.88;2.60;;;22.40;62.00;;;;;;5070890;28;20078;-76
2021/06/27 07:14:21;;;;;;;4.53;2.63;;;22.40;62.20;;;;;;5062526;28;20032;-77
2021/06/27 07:17:07;;;;;;;3.83;2.50;;;22.40;62.10;;;;;;5067710;28;20055;-76
2021/06/27 07:19:52;;;;;;;5.40;3.08;;;22.50;61.40;;;;;;5056255;28;20040;-74
2021/06/27 07:22:39;;;;;;;3.75;2.78;;;22.50;61.10;;;;;;5077837;28;20060;-73
2021/06/27 07:25:24;;;;;;;7.35;2.78;;;22.60;61.10;;;;;;5073524;28;20479;-78
2021/06/27 07:28:10;;;;;;;7.55;3.55;;;22.60;61.30;;;;;;5075391;28;20035;-77
2021/06/27 07:30:58;;;;;;;4.40;2.92;;;22.70;61.10;;;;;;5069473;28;20042;-75
2021/06/27 07:33:44;;;;;;;3.90;2.78;;;22.80;61.00;;;;;;5072818;28;20020;-70
2021/06/27 07:36:29;;;;;;;7.05;2.83;;;22.80;60.70;;;;;;5083834;28;20438;-69
2021/06/27 07:39:15;;;;;;;4.55;2.85;;;22.90;61.00;;;;;;5063564;28;20067;-71
2021/06/27 07:42:01;;;;;;;4.40;2.72;;;23.00;61.20;;;;;;5074280;28;20025;-72
2021/06/27 07:44:47;;;;;;;5.32;2.97;;;23.10;61.00;;;;;;5060363;28;20185;-70
2021/06/27 07:47:31;;;;;;;3.88;2.67;;;23.10;60.60;;;;;;5053607;28;20032;-70
2021/06/27 07:50:15;;;;;;;3.38;2.70;;;23.20;60.90;;;;;;5065125;28;20139;-70
2021/06/27 07:52:59;;;;;;;3.80;2.63;;;23.30;60.30;;;;;;5084275;28;20139;-71
2021/06/27 07:55:43;;;;;;;4.25;2.97;;;23.30;60.00;;;;;;5065675;28;20116;-71
2021/06/27 07:58:27;;;;;;;4.10;2.78;;;23.40;59.80;;;;;;5067848;28;20064;-71
2021/06/27 08:01:11;;;;;;;4.07;3.10;;;23.40;59.30;;;;;;5072459;28;20038;-71
2021/06/27 08:03:55;;;;;;;4.00;3.13;;;23.40;59.30;;;;;;5070319;28;20395;-72
2021/06/27 08:06:39;;;;;;;4.40;3.10;;;23.40;58.90;;;;;;5076293;28;20463;-72
2021/06/27 08:09:23;;;;;;;6.13;3.22;;;23.40;58.70;;;;;;5065480;28;20930;-72
2021/06/27 08:12:08;;;;;;;4.43;2.97;;;23.30;58.50;;;;;;5083226;28;20077;-71
2021/06/27 08:14:52;;;;;;;;;;;23.40;58.30;;;;;;5079768;28;20101;-72
2021/06/27 08:17:37;;;;;;;6.20;2.92;;;23.50;59.00;;;;;;5087318;28;19977;-72
2021/06/27 08:20:22;;;;;;;4.90;2.88;;;23.50;59.50;;;;;;5085141;28;20031;-71
2021/06/27 08:23:07;;;;;;;5.50;3.97;;;23.60;59.20;;;;;;5080073;28;20043;-71
2021/06/27 08:25:51;;;;;;;7.93;3.58;;;23.70;59.60;;;;;;5077291;28;20055;-71
2021/06/27 08:28:35;;;;;;;5.97;3.07;;;23.80;59.20;;;;;;5085268;28;20419;-72
2021/06/27 08:31:23;;;;;;;7.95;3.67;;;23.90;58.40;;;;;;5074367;28;20420;-71
2021/06/27 08:34:07;;;;;;;6.10;3.28;;;23.90;58.60;;;;;;5076490;28;20043;-72
2021/06/27 08:36:51;;;;;;;6.25;2.75;;;24.00;58.90;;;;;;5079078;28;20036;-73
2021/06/27 08:39:35;;;;;;;4.68;3.30;;;24.10;58.50;;;;;;5076466;28;20099;-72
2021/06/27 08:42:20;;;;;;;4.03;3.10;;;24.20;58.40;;;;;;5077138;28;20123;-72
2021/06/27 08:45:09;;;;;;;4.53;3.00;;;24.30;58.20;;;;;;5076940;28;20074;-72
2021/06/27 08:47:54;;;;;;;5.72;3.28;;;24.40;57.70;;;;;;5084324;28;20035;-72
2021/06/27 08:50:38;;;;;;;4.30;2.80;;;24.50;56.70;;;;;;5064185;28;20109;-72
2021/06/27 08:53:23;;;;;;;3.63;3.10;;;24.50;56.30;;;;;;5065349;28;20043;-72
2021/06/27 08:56:08;;;;;;;;;;;24.50;56.60;;;;;;5069151;28;20384;-72
2021/06/27 08:58:52;;;;;;;4.50;3.20;;;24.50;55.90;;;;;;5065727;28;20506;-72
2021/06/27 09:01:36;;;;;;;3.05;2.60;;;24.50;56.70;;;;;;5064028;28;20454;-72
2021/06/27 09:04:20;;;;;;;3.70;3.00;;;24.60;56.40;;;;;;5072905;28;20094;-72
2021/06/27 09:07:39;;;;;;;5.57;3.08;;;24.60;56.60;;;;;;5070108;28;20040;-72
2021/06/27 09:10:25;;;;;;;5.10;3.42;;;24.70;56.80;;;;;;5070849;28;20031;-72
2021/06/27 09:12:58;;;;;;;3.83;2.85;;;24.80;56.20;;;;;;5069097;28;20043;-73
2021/06/27 09:15:49;;;;;;;3.88;2.90;;;24.90;55.40;;;;;;5070136;28;20076;-73
2021/06/27 09:18:14;;;;;;;4.93;3.33;;;24.90;54.90;;;;;;5074171;28;20087;-72
2021/06/27 09:20:47;;;;;;;3.78;2.70;;;24.90;55.10;;;;;;5069212;28;20052;-73
2021/06/27 09:23:14;;;;;;;3.67;2.65;;;24.90;54.70;;;;;;5074348;28;20112;-72
2021/06/27 09:25:42;;;;;;;4.65;3.20;;;24.90;54.70;;;;;;5072651;28;20033;-73
2021/06/27 09:28:17;;;;;;;4.47;3.47;;;24.90;54.40;;;;;;5051642;28;20059;-73
2021/06/27 09:30:51;;;;;;;3.63;3.10;;;25.00;55.00;;;;;;5070932;28;20806;-72
2021/06/27 09:33:23;;;;;;;4.53;3.20;;;25.00;54.60;;;;;;5074037;28;20020;-73
2021/06/27 09:35:52;;;;;;;3.70;3.03;;;25.00;54.80;;;;;;5080093;28;20133;-73
2021/06/27 09:38:45;;;;;;;3.90;2.92;;;25.10;54.80;;;;;;5062395;28;20535;-73
2021/06/27 09:41:20;;;;;;;3.35;2.83;;;25.10;54.60;;;;;;5070118;28;20036;-73
2021/06/27 09:43:54;;;;;;;6.75;2.90;;;25.10;54.80;;;;;;5074372;28;20032;-73
2021/06/27 09:46:46;;;;;;;4.03;2.90;;;25.20;54.30;;;;;;5072960;28;20029;-73
2021/06/27 09:49:38;;;;;;;3.85;2.63;;;25.20;54.20;;;;;;5073067;28;20040;-73
2021/06/27 09:52:07;;;;;;;3.38;2.53;;;25.20;54.30;;;;;;5056190;28;20036;-73
2021/06/27 09:54:35;;;;;;;3.42;2.75;;;25.30;54.40;;;;;;5072597;28;20106;-72
2021/06/27 09:57:00;;;;;;;3.03;2.40;;;25.40;54.00;;;;;;5073349;28;20073;-73
2021/06/27 09:59:40;;;;;;;5.93;3.17;;;25.50;53.70;;;;;;5045964;28;20029;-73
2021/06/27 10:02:07;;;;;;;3.42;2.50;;;25.60;53.80;;;;;;5053852;28;20083;-73
2021/06/27 10:04:35;;;;;;;4.50;2.70;;;25.70;53.80;;;;;;5060471;28;20412;-71
2021/06/27 10:07:03;;;;;;;3.95;2.75;;;25.70;52.70;;;;;;5073059;28;20032;-73
2021/06/27 10:09:37;;;;;;;4.60;2.80;;;25.70;52.40;;;;;;5073557;28;20024;-74
2021/06/27 10:12:05;;;;;;;2.90;2.40;;;25.70;52.50;;;;;;5069322;28;20044;-75
2021/06/27 10:14:42;;;;;;;3.58;2.33;;;25.70;52.80;;;;;;5072902;28;20066;-74
2021/06/27 10:17:07;;;;;;;2.90;2.25;;;25.80;52.00;;;;;;5072570;28;20087;-73
2021/06/27 10:19:34;;;;;;;4.57;2.80;;;25.90;52.20;;;;;;5073063;28;20051;-73
2021/06/27 10:22:02;;;;;;;4.28;2.78;;;25.90;51.70;;;;;;5071005;28;20047;-73
2021/06/27 10:24:28;;;;;;;3.45;2.42;;;26.00;52.40;;;;;;5071241;28;20377;-73
2021/06/27 10:26:54;;;;;;;5.30;2.95;;;26.10;52.40;;;;;;5071852;28;20028;-73
2021/06/27 10:29:21;;;;;;;4.38;2.78;;;26.20;51.30;;;;;;5071770;28;20051;-74
2021/06/27 10:31:49;;;;;;;3.22;2.53;;;26.30;51.40;;;;;;5070758;28;20039;-73
2021/06/27 10:34:15;;;;;;;3.15;2.50;;;26.30;50.80;;;;;;5069378;28;20488;-72
2021/06/27 10:36:43;;;;;;;5.70;2.55;;;26.40;50.30;;;;;;5072542;28;20028;-72
2021/06/27 10:39:11;;;;;;;3.65;2.63;;;26.50;50.00;;;;;;5070911;28;20413;-72
2021/06/27 10:41:49;;;;;;;3.35;2.20;;;26.50;49.60;;;;;;5070154;28;20629;-72
2021/06/27 10:44:15;;;;;;;3.50;2.85;;;26.60;50.80;;;;;;5062611;28;20029;-72
2021/06/27 10:46:47;;;;;;;3.85;2.65;;;26.60;50.10;;;;;;5053345;28;20028;-72
2021/06/27 10:49:31;;;;;;;2.83;2.15;;;26.70;50.40;;;;;;5056594;28;20029;-72
2021/06/27 10:52:11;;;;;;;2.60;2.30;;;26.80;50.40;;;;;;5067310;28;20047;-71
2021/06/27 10:55:01;;;;;;;4.35;2.67;;;26.90;50.50;;;;;;5072173;28;20056;-71
2021/06/27 10:58:00;;;;;;;5.30;2.75;;;27.00;49.80;;;;;;5049576;28;20043;-70
2021/06/27 11:00:27;;;;;;;4.07;2.72;;;26.90;48.80;;;;;;5067883;28;20445;-70
2021/06/27 11:02:54;;;;;;;5.80;3.38;;;26.90;49.70;;;;;;5060889;28;20045;-70
2021/06/27 11:05:26;;;;;;;5.05;2.42;;;26.90;48.20;;;;;;5084831;28;20048;-71
2021/06/27 11:07:52;;;;;;;3.22;2.47;;;26.90;48.00;;;;;;5071180;28;20032;-72
2021/06/27 11:10:20;;;;;;;3.83;2.70;;;27.00;47.80;;;;;;5071368;28;20021;-71
2021/06/27 11:12:55;;;;;;;5.07;2.50;;;27.10;47.40;;;;;;5069888;28;20028;-72
2021/06/27 11:15:21;;;;;;;3.63;2.60;;;27.10;48.00;;;;;;5071186;28;20029;-73
2021/06/27 11:17:54;;;;;;;3.22;2.30;;;27.10;47.70;;;;;;5070914;28;20032;-72
2021/06/27 11:20:21;;;;;;;3.35;2.58;;;27.10;47.70;;;;;;5063559;28;20108;-72
2021/06/27 11:22:51;;;;;;;3.42;2.85;;;27.20;47.60;;;;;;5070583;28;20025;-73
2021/06/27 11:25:32;;;;;;;4.20;2.53;;;27.30;48.20;;;;;;5070620;28;20469;-73
2021/06/27 11:27:58;;;;;;;4.60;2.55;;;27.50;48.40;;;;;;5068972;28;20020;-72
2021/06/27 11:30:31;;;;;;;2.70;2.20;;;27.60;48.90;;;;;;5070764;28;20035;-73
2021/06/27 11:33:21;;;;;;;3.88;2.83;;;27.70;47.50;;;;;;5070677;28;20380;-72
2021/06/27 11:35:49;;;;;;;4.03;2.67;;;27.70;46.90;;;;;;5070904;28;20025;-72
2021/06/27 11:38:41;;;;;;;4.65;2.83;;;27.60;47.20;;;;;;5070735;28;20040;-72
2021/06/27 11:41:32;;;;;;;4.68;3.20;;;27.50;47.70;;;;;;5064794;28;20021;-72
2021/06/27 11:44:06;;;;;;;3.65;2.65;;;27.50;47.70;;;;;;5067704;28;20032;-72
2021/06/27 11:46:42;;;;;;;4.35;2.90;;;27.50;48.10;;;;;;5053665;28;20112;-72
2021/06/27 11:49:27;;;;;;;3.58;2.80;;;27.60;47.70;;;;;;5065749;28;20029;-72
2021/06/27 11:51:52;;;;;;;;;;;27.50;47.50;;;;;;5060037;28;20233;-72
2021/06/27 11:54:37;;;;;;;5.63;2.80;;;27.50;46.50;;;;;;5068181;28;19911;-71
2021/06/27 11:57:21;;;;;;;4.68;2.80;;;27.50;47.30;;;;;;5070678;28;20562;-71
2021/06/27 12:00:07;;;;;;;3.55;2.83;;;27.60;47.40;;;;;;5059576;28;20109;-72
2021/06/27 12:02:51;;;;;;;4.50;2.60;;;27.70;47.80;;;;;;5071653;28;20519;-72
2021/06/27 12:05:37;;;;;;;5.43;2.83;;;27.80;47.40;;;;;;5070624;28;20051;-72
2021/06/27 12:08:22;;;;;;;3.03;2.50;;;27.80;47.00;;;;;;5042531;28;20050;-73
2021/06/27 12:10:51;;;;;;;3.75;2.63;;;27.80;47.00;;;;;;5073802;28;20016;-73
2021/06/27 12:13:16;;;;;;;2.90;2.45;;;27.70;47.00;;;;;;5069008;28;20032;-73
2021/06/27 12:15:47;;;;;;;4.70;2.78;;;27.70;47.30;;;;;;5071687;28;20078;-74
2021/06/27 12:18:14;;;;;;;3.72;2.60;;;27.70;46.70;;;;;;5068098;28;20037;-72
2021/06/27 12:20:46;;;;;;;2.85;2.45;;;27.60;47.40;;;;;;5070118;28;20022;-73
2021/06/27 12:23:20;;;;;;;3.95;2.97;;;27.60;46.80;;;;;;5070248;28;20461;-72
2021/06/27 12:25:47;;;;;;;3.22;2.50;;;27.50;46.70;;;;;;5060696;28;20028;-74
2021/06/27 12:28:28;;;;;;;2.90;2.30;;;27.50;46.90;;;;;;5063822;28;20048;-74
2021/06/27 12:31:00;;;;;;;3.97;2.63;;;27.60;47.10;;;;;;5071287;28;20056;-74
2021/06/27 12:33:33;;;;;;;7.38;2.80;;;27.70;47.20;;;;;;5070378;28;20051;-73
2021/06/27 12:36:02;;;;;;;3.70;2.47;;;27.80;47.80;;;;;;5067911;28;20098;-74
2021/06/27 12:38:30;;;;;;;3.05;2.50;;;27.90;47.50;;;;;;5071058;28;20037;-73
2021/06/27 12:41:19;;;;;;;3.50;2.42;;;28.00;47.00;;;;;;5056541;28;20531;-73
2021/06/27 12:43:50;;;;;;;6.22;2.90;;;28.00;46.10;;;;;;5070671;28;20028;-73
2021/06/27 12:46:31;;;;;;;4.72;2.80;;;27.90;45.60;;;;;;5051678;28;20033;-73
2021/06/27 12:49:20;;;;;;;3.20;2.60;;;28.00;46.80;;;;;;5070964;28;20066;-74
2021/06/27 12:52:07;;;;;;;3.85;2.40;;;28.20;46.80;;;;;;5065247;28;20037;-74
2021/06/27 12:54:33;;;;;;;2.90;2.15;;;28.40;46.30;;;;;;5069462;28;20033;-73
2021/06/27 12:57:14;;;;;;;3.53;2.70;;;28.50;45.70;;;;;;5063274;28;20489;-73
2021/06/27 12:59:43;;;;;;;4.03;2.70;;;28.50;45.60;;;;;;5060024;28;20725;-74
2021/06/27 13:02:23;;;;;;;2.80;2.35;;;28.50;45.20;;;;;;5070854;28;20135;-74
2021/06/27 13:04:51;;;;;;;3.40;2.60;;;28.50;44.70;;;;;;5069405;28;20049;-74
2021/06/27 13:07:38;;;;;;;3.30;2.92;;;28.50;45.50;;;;;;5067329;28;20055;-74
2021/06/27 13:10:23;;;;;;;3.88;2.40;;;28.50;45.90;;;;;;5051428;28;20024;-72
2021/06/27 13:12:53;;;;;;;3.67;2.45;;;28.60;45.00;;;;;;5069510;28;20443;-72
2021/06/27 13:15:46;;;;;;;4.00;2.67;;;28.50;44.80;;;;;;5067968;28;20473;-72
2021/06/27 13:18:17;;;;;;;4.32;2.30;;;28.50;45.40;;;;;;5050092;28;20102;-73
2021/06/27 13:20:50;;;;;;;3.63;2.33;;;28.40;45.40;;;;;;5068380;28;20025;-74
2021/06/27 13:23:20;;;;;;;3.10;2.20;;;28.40;44.90;;;;;;5071281;28;20075;-74
2021/06/27 13:25:54;;;;;;;3.97;2.45;;;28.40;45.80;;;;;;5074072;28;20029;-74
2021/06/27 13:28:43;;;;;;;5.53;2.30;;;28.30;45.80;;;;;;5073773;28;20078;-74
2021/06/27 13:31:31;;;;;;;2.88;2.17;;;28.30;45.50;;;;;;5074227;28;20040;-73
2021/06/27 13:34:31;;;;;;;3.13;2.10;;;28.30;45.60;;;;;;5073219;28;20082;-74
2021/06/27 13:37:15;;;;;;;2.67;2.42;;;28.40;46.40;;;;;;5073938;28;20039;-74
2021/06/27 13:39:59;;;;;;;4.00;2.45;;;28.30;45.60;;;;;;5071047;28;20040;-74
2021/06/27 13:42:43;;;;;;;2.55;2.05;;;28.40;45.40;;;;;;5058811;28;20043;-74
2021/06/27 13:45:28;;;;;;;3.45;2.47;;;28.40;45.90;;;;;;5074131;28;20458;-74
2021/06/27 13:48:12;;;;;;;3.78;2.20;;;28.40;46.40;;;;;;5071966;28;20328;-74
2021/06/27 13:50:56;;;;;;;3.03;2.40;;;28.50;47.80;;;;;;5072798;28;20407;-75
2021/06/27 13:53:41;;;;;;;4.63;2.58;;;28.60;47.50;;;;;;5059285;28;20069;-74
2021/06/27 13:56:26;;;;;;;5.15;3.03;;;28.80;47.20;;;;;;5070661;28;20082;-74
2021/06/27 13:59:10;;;;;;;4.50;2.50;;;29.00;47.60;;;;;;5069115;28;20515;-74
2021/06/27 14:01:37;;;;;;;3.13;2.00;;;29.10;47.10;;;;;;5071687;28;20024;-73
2021/06/27 14:04:05;;;;;;;3.80;2.60;;;29.00;44.80;;;;;;5067559;28;20033;-74